Time;durP1;ratioP1;P1;durP2;ratioP2;P2;SDS_P1;SDS_P2;PMS_P1;PMS_P2;Temp;Humidity;BMP_temperature;BMP_pressure;BME280_temperature;BME280_humidity;BME280_pressure;Samples;Min_cycle;Max_cycle;Signal;HPM_P1;HPM_P2
2024/02/06 00:01:50;;;;;;;15.20;8.13;;;5.20;64.70;;;0.23;100.00;96011.59;4982185;28;20030;-57
2024/02/06 00:04:17;;;;;;;17.90;9.07;;;5.10;64.70;;;0.22;100.00;96012.59;4970505;28;20022;-53
2024/02/06 00:06:43;;;;;;;18.15;8.23;;;5.10;64.80;;;0.20;100.00;96012.78;4973960;28;20061;-52
2024/02/06 00:09:09;;;;;;;15.25;7.88;;;5.10;64.70;;;0.18;100.00;96012.16;4974269;28;20452;-51
2024/02/06 00:11:37;;;;;;;14.38;7.95;;;5.10;64.80;;;0.15;100.00;96017.75;4975352;28;20133;-53
2024/02/06 00:14:03;;;;;;;15.77;8.18;;;5.10;64.70;;;0.15;100.00;96007.28;4972662;28;20032;-52
2024/02/06 00:16:29;;;;;;;17.83;8.20;;;5.10;64.80;;;0.19;100.00;96010.38;4969989;28;20026;-52
2024/02/06 00:18:55;;;;;;;18.63;9.43;;;5.10;64.90;;;0.22;100.00;96016.03;4958645;28;20033;-52
2024/02/06 00:21:22;;;;;;;16.13;8.15;;;5.10;65.10;;;0.25;100.00;96014.00;4968877;28;20025;-52
2024/02/06 00:23:48;;;;;;;18.85;7.63;;;5.10;65.20;;;0.25;100.00;96014.00;4960520;28;20486;-55
2024/02/06 00:26:14;;;;;;;14.90;7.28;;;5.10;65.20;;;0.14;100.00;96010.09;4965970;28;20065;-52
2024/02/06 00:28:40;;;;;;;16.65;7.40;;;5.10;65.10;;;0.15;100.00;96011.72;4963564;28;20070;-52
2024/02/06 00:31:06;;;;;;;16.48;7.43;;;5.10;65.10;;;0.10;100.00;96014.13;4962125;28;20474;-52
2024/02/06 00:33:31;;;;;;;15.23;8.15;;;5.10;65.00;;;0.16;100.00;96008.94;4968325;28;20033;-52
2024/02/06 00:35:57;;;;;;;17.92;8.20;;;5.10;65.10;;;0.13;100.00;96009.31;4962799;28;20027;-53
2024/02/06 00:38:23;;;;;;;14.07;7.32;;;5.10;65.20;;;0.12;100.00;96015.53;4966242;28;20105;-53
2024/02/06 00:40:49;;;;;;;13.43;6.90;;;5.10;65.20;;;0.09;100.00;96008.03;4967871;28;20029;-52
2024/02/06 00:43:15;;;;;;;18.35;7.50;;;5.10;65.10;;;0.07;100.00;96017.91;4970788;28;20037;-53
2024/02/06 00:45:41;;;;;;;12.98;7.13;;;5.00;65.10;;;-0.01;100.00;96018.03;4962774;28;20477;-52
2024/02/06 00:48:07;;;;;;;11.48;6.93;;;5.00;65.00;;;-0.04;100.00;96018.41;4962997;28;20031;-52
2024/02/06 00:50:33;;;;;;;10.45;6.35;;;5.00;65.00;;;-0.01;100.00;96018.84;4961533;28;20034;-52
2024/02/06 00:52:59;;;;;;;13.80;7.03;;;5.00;65.10;;;-0.08;100.00;96025.03;4963875;28;20037;-53
2024/02/06 00:55:25;;;;;;;14.20;6.95;;;4.90;65.00;;;-0.14;100.00;96028.38;4965938;28;20061;-52
2024/02/06 00:57:51;;;;;;;13.85;7.25;;;4.90;65.00;;;-0.19;100.00;96028.13;4987437;28;20070;-52
2024/02/06 01:00:17;;;;;;;17.10;7.18;;;4.90;65.00;;;-0.21;100.00;96028.31;4967549;28;20026;-52
2024/02/06 01:02:43;;;;;;;14.38;7.15;;;4.80;64.90;;;-0.32;100.00;96024.38;4966977;28;20547;-53
2024/02/06 01:05:09;;;;;;;17.92;6.95;;;4.80;64.90;;;-0.35;100.00;96018.69;4963807;28;20038;-52
2024/02/06 01:07:35;;;;;;;16.05;7.00;;;4.70;64.90;;;-0.43;100.00;96021.44;4967098;28;20023;-53
2024/02/06 01:10:01;;;;;;;16.00;7.07;;;4.70;64.90;;;-0.46;100.00;96022.63;4967416;28;20030;-52
2024/02/06 01:12:26;;;;;;;17.20;8.50;;;4.70;65.00;;;-0.38;100.00;96019.88;4965728;28;20046;-54
2024/02/06 01:14:52;;;;;;;16.27;7.70;;;4.60;65.00;;;-0.44;100.00;96015.38;4970147;28;20506;-52
2024/02/06 01:17:18;;;;;;;14.07;7.60;;;4.60;65.20;;;-0.41;100.00;96016.81;4961911;28;20374;-53
2024/02/06 01:19:44;;;;;;;15.60;8.18;;;4.60;65.30;;;-0.41;100.00;96017.63;4963566;28;20033;-53
2024/02/06 01:22:10;;;;;;;15.93;7.30;;;4.60;65.50;;;-0.38;100.00;96017.25;4966475;28;20440;-52
2024/02/06 01:24:37;;;;;;;13.32;7.70;;;4.60;65.50;;;-0.36;100.00;96017.88;4966261;28;20026;-52
2024/02/06 01:27:03;;;;;;;15.77;7.55;;;4.60;65.50;;;-0.37;100.00;96010.25;4958568;28;20030;-51
2024/02/06 01:29:29;;;;;;;17.95;7.65;;;4.60;65.60;;;-0.40;100.00;96013.22;4964139;28;20026;-51
2024/02/06 01:31:55;;;;;;;19.23;8.40;;;4.60;65.60;;;-0.45;100.00;96008.53;4956028;28;20030;-53
2024/02/06 01:34:21;;;;;;;15.93;8.10;;;4.50;65.60;;;-0.44;100.00;96010.13;4986989;28;20037;-52
2024/02/06 01:36:47;;;;;;;20.20;8.32;;;4.50;65.70;;;-0.42;100.00;96000.31;4964948;28;20114;-51
2024/02/06 01:39:13;;;;;;;16.15;8.20;;;4.60;65.80;;;-0.38;100.00;96000.75;4962954;28;20042;-52
2024/02/06 01:41:39;;;;;;;17.55;8.30;;;4.60;65.80;;;-0.43;100.00;95992.66;4963890;28;20026;-52
2024/02/06 01:44:05;;;;;;;17.38;8.88;;;4.50;65.70;;;-0.48;100.00;95990.56;4963463;28;20027;-54
2024/02/06 01:46:31;;;;;;;18.55;8.25;;;4.50;65.70;;;-0.49;100.00;95988.97;4981117;28;20089;-53
2024/02/06 01:48:59;;;;;;;18.67;8.48;;;4.50;65.70;;;-0.54;100.00;95984.28;4966297;28;20080;-54
2024/02/06 01:51:34;;;;;;;17.58;9.02;;;4.50;65.70;;;-0.55;100.00;95982.66;4964001;28;20026;-52
2024/02/06 01:54:01;;;;;;;18.75;8.35;;;4.50;65.80;;;-0.51;100.00;95981.28;4983981;28;20446;-51
2024/02/06 01:56:28;;;;;;;18.98;8.70;;;4.50;65.80;;;-0.61;100.00;95975.53;4963504;28;20022;-52
2024/02/06 01:58:55;;;;;;;19.52;9.05;;;4.50;65.80;;;-0.62;100.00;95973.94;4969214;28;20022;-52
2024/02/06 02:01:22;;;;;;;22.27;9.60;;;4.40;65.80;;;-0.62;100.00;95975.75;4965047;28;20030;-51
2024/02/06 02:03:53;;;;;;;22.15;9.30;;;4.40;65.80;;;-0.64;100.00;95972.50;4963876;28;20034;-52
2024/02/06 02:06:26;;;;;;;23.38;10.20;;;4.40;65.90;;;-0.66;100.00;95967.44;4966587;28;20113;-51
2024/02/06 02:08:52;;;;;;;25.08;9.70;;;4.40;65.90;;;-0.70;100.00;95967.00;4972265;28;20037;-51
2024/02/06 02:11:18;;;;;;;21.30;9.98;;;4.30;65.80;;;-0.70;100.00;95971.41;4975274;28;20026;-52
2024/02/06 02:13:49;;;;;;;23.05;9.35;;;4.30;65.80;;;-0.80;100.00;95976.94;4968887;28;20022;-51
2024/02/06 02:16:18;;;;;;;22.20;10.15;;;4.30;65.90;;;-0.79;100.00;95972.53;4974495;28;20034;-51
2024/02/06 02:18:44;;;;;;;23.25;10.52;;;4.30;66.00;;;-0.74;100.00;95972.78;4970738;28;20029;-53
2024/02/06 02:21:12;;;;;;;21.60;9.93;;;4.20;66.00;;;-0.78;100.00;95968.94;4969393;28;20033;-52
2024/02/06 02:23:41;;;;;;;22.70;10.55;;;4.30;66.10;;;-0.75;100.00;95973.78;4971028;28;20497;-52
2024/02/06 02:26:11;;;;;;;22.42;10.00;;;4.30;66.10;;;-0.79;100.00;95970.72;4970520;28;20452;-52
2024/02/06 02:28:39;;;;;;;22.33;10.13;;;4.20;66.10;;;-0.74;100.00;95967.56;4970988;28;20041;-52
2024/02/06 02:31:08;;;;;;;20.85;10.55;;;4.20;66.10;;;-0.74;100.00;95963.13;4971361;28;20488;-51
2024/02/06 02:33:36;;;;;;;27.25;12.10;;;4.30;66.20;;;-0.74;100.00;95964.94;4970973;28;20065;-52
2024/02/06 02:36:10;;;;;;;24.80;11.73;;;4.20;66.20;;;-0.58;100.00;95963.91;4971664;28;20022;-55
2024/02/06 02:38:40;;;;;;;22.90;11.13;;;4.20;66.50;;;-0.57;100.00;95966.31;4971488;28;20033;-52
2024/02/06 02:41:06;;;;;;;22.15;10.68;;;4.30;66.50;;;-0.64;100.00;95957.59;4970563;28;20026;-52
2024/02/06 02:43:32;;;;;;;20.40;11.00;;;4.30;66.40;;;-0.73;100.00;95966.56;4968376;28;20492;-53
2024/02/06 02:45:58;;;;;;;24.38;11.45;;;4.30;66.40;;;-0.76;100.00;95966.91;4970105;28;20045;-52
2024/02/06 02:48:24;;;;;;;25.45;10.70;;;4.30;66.30;;;-0.74;100.00;95957.09;4971555;28;20026;-53
2024/02/06 02:50:50;;;;;;;28.23;12.23;;;4.30;66.30;;;-0.81;100.00;95957.03;4971302;28;20029;-56
2024/02/06 02:53:16;;;;;;;25.67;12.35;;;4.30;66.30;;;-0.79;100.00;95954.22;4969493;28;20216;-54
2024/02/06 02:55:42;;;;;;;27.10;12.77;;;4.20;66.30;;;-0.78;100.00;95954.03;4971426;28;20035;-51
2024/02/06 02:58:07;;;;;;;25.13;11.27;;;4.20;66.30;;;-0.79;100.00;95949.78;4970442;28;20029;-51
2024/02/06 03:00:35;;;;;;;34.97;11.57;;;4.20;66.30;;;-0.79;100.00;95946.34;4966429;28;20037;-52
2024/02/06 03:03:01;;;;;;;28.52;11.98;;;4.20;66.30;;;-0.81;100.00;95943.13;4971358;28;20076;-52
2024/02/06 03:05:27;;;;;;;22.85;11.07;;;4.20;66.30;;;-0.91;100.00;95948.63;4970166;28;20037;-52
2024/02/06 03:07:52;;;;;;;32.08;11.85;;;4.20;66.30;;;-0.94;100.00;95934.16;4971154;28;20022;-52
2024/02/06 03:10:18;;;;;;;29.42;12.02;;;4.20;66.30;;;-0.94;100.00;95934.16;4970469;28;20034;-53
2024/02/06 03:12:44;;;;;;;38.20;12.90;;;4.10;66.30;;;-0.91;100.00;95932.94;4961484;23;20065;-54
2024/02/06 03:15:10;;;;;;;23.10;11.18;;;4.10;66.30;;;-0.88;100.00;95921.31;4935016;29;20038;-53
2024/02/06 03:17:37;;;;;;;24.45;12.70;;;4.10;66.40;;;-0.87;100.00;95928.97;4924023;29;20027;-50
2024/02/06 03:20:04;;;;;;;32.70;13.35;;;4.10;66.40;;;-0.85;100.00;95929.59;4921647;29;20039;-51
2024/02/06 03:22:32;;;;;;;26.40;12.32;;;4.20;66.60;;;-0.81;100.00;95922.22;4914231;29;20050;-50
2024/02/06 03:24:59;;;;;;;27.27;12.32;;;4.10;66.60;;;-0.83;100.00;95924.19;4903389;29;20120;-52
2024/02/06 03:27:25;;;;;;;28.70;12.10;;;4.20;66.70;;;-0.81;100.00;95924.81;4906218;29;20051;-55
2024/02/06 03:29:53;;;;;;;32.72;13.30;;;4.20;66.70;;;-0.82;100.00;95924.00;4911955;29;20110;-51
2024/02/06 03:32:19;;;;;;;28.75;12.05;;;4.20;66.70;;;-0.80;100.00;95916.78;4906207;29;20063;-52
2024/02/06 03:34:45;;;;;;;27.10;11.75;;;4.20;66.70;;;-0.83;100.00;95914.53;4905328;29;20074;-52
2024/02/06 03:37:13;;;;;;;26.60;12.02;;;4.20;66.70;;;-0.81;100.00;95925.63;4906514;29;20043;-50
2024/02/06 03:39:39;;;;;;;38.67;14.43;;;4.20;66.70;;;-0.73;100.00;95925.50;4909088;29;20054;-54
2024/02/06 03:42:05;;;;;;;30.63;15.00;;;4.30;66.80;;;-0.65;100.00;95927.22;4904783;29;20051;-50
2024/02/06 03:44:31;;;;;;;32.08;15.20;;;4.30;67.00;;;-0.58;100.00;95932.50;4911040;29;20075;-50
2024/02/06 03:46:56;;;;;;;35.47;14.95;;;4.30;67.20;;;-0.48;100.00;95935.63;4910292;29;20036;-49
2024/02/06 03:49:22;;;;;;;35.40;14.68;;;4.40;67.40;;;-0.44;100.00;95931.63;4911999;29;20032;-52
2024/02/06 03:51:48;;;;;;;35.92;15.27;;;4.40;67.40;;;-0.37;100.00;95940.38;4910693;29;20078;-53
2024/02/06 03:54:14;;;;;;;27.92;15.05;;;4.50;67.50;;;-0.33;100.00;95938.97;4906135;29;20027;-54
2024/02/06 03:56:40;;;;;;;44.22;17.45;;;4.60;67.50;;;-0.25;100.00;95935.44;4907720;29;20031;-54
2024/02/06 03:59:05;;;;;;;45.25;20.15;;;4.60;67.60;;;-0.10;100.00;95945.81;4910230;29;20024;-53
2024/02/06 04:01:32;;;;;;;41.92;21.38;;;4.70;68.00;;;0.08;100.00;95930.47;4905425;29;20028;-51
2024/02/06 04:03:57;;;;;;;40.17;17.42;;;4.80;68.30;;;0.16;100.00;95940.00;4898760;29;20032;-56
2024/02/06 04:06:23;;;;;;;28.73;14.27;;;4.90;68.40;;;0.18;100.00;95923.06;4906195;29;20032;-55
2024/02/06 04:08:49;;;;;;;26.33;12.07;;;5.00;68.20;;;0.03;100.00;95932.03;4904941;29;20111;-50
2024/02/06 04:11:15;;;;;;;31.50;11.48;;;5.00;67.80;;;-0.05;100.00;95923.31;4902909;29;20039;-52
2024/02/06 04:13:41;;;;;;;28.08;11.65;;;5.10;67.40;;;-0.29;100.00;95916.66;4904877;29;20376;-53
2024/02/06 04:16:07;;;;;;;26.20;11.32;;;5.00;66.90;;;-0.44;100.00;95918.53;4903152;29;20027;-50
2024/02/06 04:18:34;;;;;;;32.22;13.20;;;4.90;66.60;;;-0.44;100.00;95921.16;4908450;29;20426;-50
2024/02/06 04:21:00;;;;;;;26.92;12.00;;;4.90;66.50;;;-0.49;100.00;95919.09;4907801;29;20027;-55
2024/02/06 04:23:26;;;;;;;28.15;12.88;;;4.80;66.40;;;-0.52;100.00;95929.13;4904105;29;20103;-50
2024/02/06 04:25:52;;;;;;;27.13;12.00;;;4.80;66.50;;;-0.57;100.00;95918.41;4905584;29;20046;-50
2024/02/06 04:28:20;;;;;;;27.13;12.48;;;4.70;66.40;;;-0.63;100.00;95933.03;4912819;29;20071;-53
2024/02/06 04:30:46;;;;;;;35.90;13.98;;;4.70;66.50;;;-0.61;100.00;95925.81;4920009;29;20140;-53
2024/02/06 04:33:12;;;;;;;28.63;13.77;;;4.60;66.50;;;-0.55;100.00;95935.56;4911946;29;20023;-51
2024/02/06 04:35:38;;;;;;;25.30;12.55;;;4.60;66.70;;;-0.54;100.00;95928.50;4905579;29;20122;-52
2024/02/06 04:38:08;;;;;;;31.60;14.43;;;4.60;66.90;;;-0.54;100.00;95939.78;4910344;29;20542;-49
2024/02/06 04:40:34;;;;;;;26.50;14.40;;;4.60;67.00;;;-0.54;100.00;95936.34;4908604;29;20038;-49
2024/02/06 04:42:59;;;;;;;31.20;13.85;;;4.50;67.00;;;-0.53;100.00;95936.19;4915664;29;20042;-49
2024/02/06 04:45:26;;;;;;;40.53;18.73;;;4.60;67.10;;;-0.46;100.00;95941.47;4911380;29;20032;-54
2024/02/06 04:47:51;;;;;;;42.28;18.65;;;4.50;67.20;;;-0.34;100.00;95933.94;4909094;29;20094;-50
2024/02/06 04:50:21;;;;;;;36.28;16.15;;;4.60;67.60;;;-0.30;100.00;95943.84;4905233;29;20027;-49
2024/02/06 04:52:47;;;;;;;33.30;14.65;;;4.60;67.60;;;-0.31;100.00;95934.38;4910633;29;20558;-49
2024/02/06 04:55:13;;;;;;;30.95;15.10;;;4.60;67.50;;;-0.33;100.00;95931.13;4909416;29;20350;-52
2024/02/06 04:57:40;;;;;;;30.55;14.18;;;4.70;67.50;;;-0.33;100.00;95936.38;4905770;29;20038;-54
2024/02/06 05:00:12;;;;;;;38.63;16.60;;;4.70;67.50;;;-0.35;100.00;95935.72;4913856;29;20023;-50
2024/02/06 05:02:39;;;;;;;42.10;16.65;;;4.70;67.50;;;-0.32;100.00;95935.34;4902528;29;20483;-52
2024/02/06 05:05:06;;;;;;;37.55;17.83;;;4.70;67.60;;;-0.27;100.00;95932.19;4911293;29;20083;-53
2024/02/06 05:07:35;;;;;;;44.03;18.83;;;4.70;67.70;;;-0.25;100.00;95928.41;4894623;29;20491;-54
2024/02/06 05:10:01;;;;;;;41.83;17.30;;;4.80;67.80;;;-0.20;100.00;95930.44;4904883;29;20451;-53
2024/02/06 05:12:27;;;;;;;37.72;15.68;;;4.80;67.90;;;-0.20;100.00;95927.81;4908583;29;20091;-50
2024/02/06 05:14:53;;;;;;;32.90;15.88;;;4.80;67.80;;;-0.21;100.00;95930.63;4909394;29;20024;-51
2024/02/06 05:17:19;;;;;;;35.05;15.23;;;4.80;67.90;;;-0.21;100.00;95931.44;4907554;29;20035;-57
2024/02/06 05:19:44;;;;;;;39.47;16.95;;;4.80;67.80;;;-0.22;100.00;95929.81;4909248;29;20032;-56
2024/02/06 05:22:10;;;;;;;33.20;15.10;;;4.80;67.70;;;-0.26;100.00;95939.03;4899238;29;20039;-52
2024/02/06 05:24:37;;;;;;;32.35;15.70;;;4.70;67.60;;;-0.31;100.00;95931.75;4903843;29;20055;-50
2024/02/06 05:27:03;;;;;;;34.30;15.95;;;4.70;67.60;;;-0.34;100.00;95928.72;4899754;29;20036;-53
2024/02/06 05:29:33;;;;;;;34.80;15.65;;;4.70;67.50;;;-0.38;100.00;95919.59;4906405;29;20091;-53
2024/02/06 05:31:58;;;;;;;29.67;14.27;;;4.70;67.60;;;-0.41;100.00;95923.38;4902254;29;20031;-50
2024/02/06 05:34:25;;;;;;;33.75;15.20;;;4.70;67.60;;;-0.46;100.00;95931.00;4903920;29;20472;-52
2024/02/06 05:36:51;;;;;;;32.30;16.17;;;4.70;67.60;;;-0.49;100.00;95932.19;4901037;29;20032;-58
2024/02/06 05:39:16;;;;;;;40.60;17.25;;;4.70;67.60;;;-0.48;100.00;95927.75;4900856;29;20027;-49
2024/02/06 05:41:42;;;;;;;35.83;15.93;;;4.60;67.50;;;-0.48;100.00;95935.63;4904659;29;20028;-50
2024/02/06 05:44:08;;;;;;;35.78;17.33;;;4.60;67.60;;;-0.49;100.00;95936.63;4905715;29;20383;-49
2024/02/06 05:46:34;;;;;;;50.35;21.83;;;4.60;67.70;;;-0.50;100.00;95940.25;4903490;29;20031;-53
2024/02/06 05:49:00;;;;;;;45.17;19.30;;;4.60;67.70;;;-0.51;100.00;95943.84;4903277;29;20032;-53
2024/02/06 05:51:26;;;;;;;41.10;16.88;;;4.50;67.70;;;-0.47;100.00;95947.69;4901835;29;20027;-56
2024/02/06 05:53:52;;;;;;;34.20;16.23;;;4.50;67.80;;;-0.45;100.00;95952.75;4908806;29;20490;-51
2024/02/06 05:56:17;;;;;;;37.45;16.75;;;4.60;68.00;;;-0.43;100.00;95945.53;4899601;29;20044;-53
2024/02/06 05:58:43;;;;;;;34.13;17.20;;;4.50;68.00;;;-0.41;100.00;95954.81;4910163;29;20637;-50
2024/02/06 06:01:09;;;;;;;37.47;16.42;;;4.50;68.10;;;-0.38;100.00;95951.00;4906502;29;20086;-51
2024/02/06 06:03:36;;;;;;;45.67;18.05;;;4.50;68.20;;;-0.36;100.00;95962.91;4903604;29;20061;-50
2024/02/06 06:06:02;;;;;;;38.28;17.17;;;4.60;68.30;;;-0.33;100.00;95959.13;4904567;29;20490;-50
2024/02/06 06:08:28;;;;;;;42.22;16.25;;;4.60;68.30;;;-0.35;100.00;95961.91;4913095;29;20090;-48
2024/02/06 06:10:56;;;;;;;53.28;18.42;;;4.60;68.40;;;-0.33;100.00;95965.16;4904871;29;20484;-52
2024/02/06 06:13:24;;;;;;;40.00;17.65;;;4.60;68.40;;;-0.33;100.00;95962.53;4912350;29;20406;-51
2024/02/06 06:15:51;;;;;;;37.83;16.98;;;4.60;68.40;;;-0.34;100.00;95960.13;4904979;29;20035;-51
2024/02/06 06:18:17;;;;;;;40.63;17.95;;;4.60;68.40;;;-0.36;100.00;95965.53;4904315;29;20053;-48
2024/02/06 06:20:43;;;;;;;38.67;16.48;;;4.60;68.30;;;-0.35;100.00;95961.09;4904799;29;20142;-50
2024/02/06 06:23:08;;;;;;;39.08;17.67;;;4.60;68.30;;;-0.36;100.00;95967.34;4905006;29;20023;-49
2024/02/06 06:25:34;;;;;;;41.42;17.63;;;4.60;68.40;;;-0.34;100.00;95962.75;4904086;29;20059;-54
2024/02/06 06:28:00;;;;;;;49.70;18.10;;;4.60;68.50;;;-0.32;100.00;95960.72;4905405;29;20044;-52
2024/02/06 06:30:26;;;;;;;43.65;17.58;;;4.60;68.60;;;-0.32;100.00;95964.16;4902990;29;20426;-53
2024/02/06 06:32:52;;;;;;;42.28;17.90;;;4.60;68.60;;;-0.31;100.00;95967.59;4902015;29;20031;-54
2024/02/06 06:35:17;;;;;;;43.38;18.10;;;4.60;68.70;;;-0.29;100.00;95974.25;4900512;29;20059;-51
2024/02/06 06:37:43;;;;;;;40.78;17.25;;;4.70;68.80;;;-0.30;100.00;95977.06;4907985;29;20043;-51
2024/02/06 06:40:10;;;;;;;46.80;18.70;;;4.70;68.80;;;-0.28;100.00;95975.91;4900594;29;20036;-55
2024/02/06 06:42:36;;;;;;;45.78;18.70;;;4.70;68.90;;;-0.25;100.00;95978.16;4904189;29;20024;-51
2024/02/06 06:45:02;;;;;;;49.22;16.80;;;4.70;69.00;;;-0.23;100.00;95983.19;4913463;29;20028;-53
2024/02/06 06:47:30;;;;;;;50.78;18.25;;;4.70;68.90;;;-0.17;100.00;95981.63;4902040;29;20027;-54
2024/02/06 06:49:56;;;;;;;48.03;18.40;;;4.70;69.00;;;-0.15;100.00;95983.06;4923298;28;20506;-52
2024/02/06 06:52:22;;;;;;;42.75;18.17;;;4.80;69.20;;;-0.08;100.00;95988.34;4903910;29;20028;-53
2024/02/06 06:54:48;;;;;;;43.92;17.35;;;4.80;69.30;;;-0.05;100.00;95978.31;4905510;29;20024;-55
2024/02/06 06:57:13;;;;;;;49.00;17.63;;;4.80;69.20;;;-0.03;100.00;95984.19;4902027;29;20028;-55
2024/02/06 06:59:39;;;;;;;42.35;18.45;;;4.90;69.20;;;-0.02;100.00;95985.00;4901240;29;20058;-50
2024/02/06 07:02:05;;;;;;;49.22;19.00;;;4.90;69.20;;;0.00;100.00;95988.25;4905290;29;20563;-55
2024/02/06 07:04:31;;;;;;;45.50;18.52;;;4.90;69.20;;;0.04;100.00;95988.66;4903964;29;20107;-55
2024/02/06 07:06:57;;;;;;;56.08;19.45;;;4.90;69.30;;;0.07;100.00;95986.47;4925184;28;20042;-54
2024/02/06 07:09:26;;;;;;;52.45;19.08;;;5.00;69.40;;;0.14;100.00;95989.16;4901392;29;20030;-57
2024/02/06 07:11:54;;;;;;;60.53;21.67;;;5.00;69.50;;;0.22;100.00;95996.88;4902701;29;20028;-55
2024/02/06 07:14:21;;;;;;;48.65;17.17;;;5.10;69.60;;;0.29;100.00;95997.75;4903525;29;20023;-52
2024/02/06 07:16:47;;;;;;;54.75;18.88;;;5.20;69.70;;;0.36;100.00;95993.34;4900977;29;20051;-56
2024/02/06 07:19:12;;;;;;;57.30;19.30;;;5.30;69.80;;;0.42;100.00;95989.16;4909308;29;20123;-51
2024/02/06 07:21:38;;;;;;;45.03;17.58;;;5.40;69.80;;;0.48;100.00;95995.47;4897784;29;20035;-52
2024/02/06 07:24:05;;;;;;;44.35;17.48;;;5.50;69.80;;;0.54;100.00;95995.50;4910440;29;20139;-53
2024/02/06 07:26:31;;;;;;;43.47;17.70;;;5.50;69.70;;;0.62;100.00;96002.41;4903033;29;20023;-53
2024/02/06 07:28:58;;;;;;;41.03;17.92;;;5.60;69.60;;;0.63;100.00;96007.47;4908466;29;20031;-51
2024/02/06 07:31:24;;;;;;;49.03;17.15;;;5.60;69.50;;;0.70;100.00;96004.88;4915116;29;20027;-51
2024/02/06 07:33:51;;;;;;;40.47;15.90;;;5.70;69.50;;;0.75;100.00;96014.78;4906089;29;20028;-53
2024/02/06 07:36:20;;;;;;;40.90;17.50;;;5.80;69.50;;;0.79;100.00;96018.66;4897248;29;20070;-53
2024/02/06 07:38:49;;;;;;;43.83;17.45;;;5.90;69.50;;;0.85;100.00;96010.03;4902363;29;20028;-51
2024/02/06 07:41:14;;;;;;;45.20;17.13;;;6.00;69.40;;;0.91;100.00;96011.88;4919308;29;20066;-50
2024/02/06 07:43:41;;;;;;;34.42;15.55;;;6.00;69.30;;;0.96;100.00;96008.66;4909736;29;20043;-56
2024/02/06 07:46:07;;;;;;;40.50;15.95;;;6.10;70.00;;;0.98;100.00;96004.03;4901273;29;20411;-53
2024/02/06 07:48:33;;;;;;;43.97;17.02;;;6.20;69.20;;;0.99;100.00;96010.91;4900426;29;20027;-54
2024/02/06 07:50:59;;;;;;;42.05;16.70;;;6.30;69.10;;;1.04;100.00;96004.06;4903519;29;20495;-55
2024/02/06 07:53:25;;;;;;;40.05;16.85;;;6.30;69.00;;;1.11;100.00;96004.91;4906531;29;20020;-55
2024/02/06 07:55:51;;;;;;;42.42;16.85;;;6.40;69.00;;;1.14;100.00;96003.72;4904825;29;20050;-56
2024/02/06 07:58:16;;;;;;;46.55;18.15;;;6.40;68.90;;;1.19;100.00;96014.41;4908631;29;20424;-55
2024/02/06 08:00:43;;;;;;;43.78;18.25;;;6.50;68.90;;;1.18;100.00;96010.19;4907502;29;20087;-56
2024/02/06 08:03:11;;;;;;;47.35;16.73;;;6.50;68.90;;;1.17;100.00;96013.81;4906665;29;20026;-50
2024/02/06 08:05:36;;;;;;;46.83;17.95;;;6.50;69.00;;;1.25;100.00;96026.75;4901949;29;20027;-52
2024/02/06 08:08:04;;;;;;;49.17;18.30;;;6.60;69.00;;;1.29;100.00;96020.13;4904771;29;20070;-55
2024/02/06 08:10:30;;;;;;;43.42;18.83;;;6.60;69.00;;;1.33;100.00;96031.03;4902297;29;20035;-57
2024/02/06 08:12:56;;;;;;;45.47;17.05;;;6.70;69.20;;;1.41;100.00;96030.06;4900907;29;20040;-52
2024/02/06 08:15:23;;;;;;;48.20;17.45;;;6.80;69.20;;;1.44;100.00;96030.47;4908397;29;20027;-55
2024/02/06 08:17:50;;;;;;;41.00;17.13;;;6.80;69.20;;;1.46;100.00;96035.53;4904709;29;20019;-52
2024/02/06 08:20:19;;;;;;;39.85;16.13;;;6.90;69.20;;;1.56;100.00;96026.28;4906543;29;20471;-53
2024/02/06 08:22:49;;;;;;;37.00;15.50;;;7.10;69.20;;;1.67;100.00;96029.34;4901740;29;20399;-56
2024/02/06 08:25:21;;;;;;;36.35;14.77;;;7.20;69.00;;;1.76;100.00;96028.97;4903608;29;20043;-55
2024/02/06 08:27:48;;;;;;;43.05;15.25;;;7.40;69.10;;;1.87;100.00;96027.56;4903574;29;20055;-55
2024/02/06 08:30:14;;;;;;;29.92;13.40;;;7.50;68.90;;;1.92;100.00;96038.31;4904101;29;20058;-56
2024/02/06 08:32:40;;;;;;;31.05;12.82;;;7.60;68.80;;;1.98;100.00;96034.09;4905092;29;20023;-55
2024/02/06 08:35:07;;;;;;;27.17;12.48;;;7.80;68.70;;;2.06;100.00;96031.25;4902924;29;20075;-58
2024/02/06 08:37:33;;;;;;;26.73;11.75;;;7.90;68.40;;;2.07;100.00;96028.44;4907610;29;20024;-52
2024/02/06 08:40:06;;;;;;;24.38;12.43;;;8.00;68.20;;;2.22;100.00;96027.44;4897541;29;20039;-56
2024/02/06 08:42:38;;;;;;;22.05;10.20;;;8.20;68.10;;;2.28;100.00;96024.78;4903070;29;20040;-53
2024/02/06 08:45:05;;;;;;;16.30;9.45;;;8.30;67.90;;;2.37;100.00;96027.25;4906735;29;20035;-55
2024/02/06 08:47:32;;;;;;;15.40;8.75;;;8.40;67.60;;;2.40;100.00;96018.94;4902709;29;20131;-53
2024/02/06 08:49:58;;;;;;;14.02;8.52;;;8.50;67.30;;;2.39;100.00;96023.41;4901528;29;20415;-55
2024/02/06 08:52:24;;;;;;;12.75;7.00;;;8.60;67.00;;;2.44;100.00;96028.03;4902730;29;20087;-58
2024/02/06 08:54:50;;;;;;;14.32;7.32;;;8.60;66.50;;;2.51;100.00;96026.25;4898903;29;20024;-54
2024/02/06 08:57:16;;;;;;;15.35;7.10;;;8.60;66.20;;;2.57;100.00;96035.13;4903912;29;20030;-50
2024/02/06 08:59:42;;;;;;;14.07;7.28;;;8.70;66.00;;;2.45;100.00;96027.06;4904259;29;20015;-52
2024/02/06 09:02:08;;;;;;;13.75;6.90;;;8.70;65.70;;;2.52;100.00;96025.22;4909574;29;20035;-54
2024/02/06 09:04:34;;;;;;;12.52;6.95;;;8.70;65.50;;;2.57;100.00;96027.22;4901813;29;20118;-52
2024/02/06 09:07:00;;;;;;;12.27;6.70;;;8.70;65.50;;;2.60;100.00;96030.28;4906110;29;20531;-51
2024/02/06 09:09:27;;;;;;;10.32;6.50;;;8.70;65.40;;;2.69;100.00;96025.59;4903129;29;20050;-51
2024/02/06 09:11:52;;;;;;;9.70;6.53;;;8.80;65.40;;;2.75;100.00;96030.06;4902162;29;20023;-51
2024/02/06 09:16:47;;;;;;;11.02;5.57;;;9.00;65.30;;;2.98;100.00;96033.06;4947278;28;20405;-52
2024/02/06 09:19:13;;;;;;;10.07;5.63;;;9.10;65.20;;;3.11;100.00;96037.50;4949989;28;20034;-50
2024/02/06 09:21:39;;;;;;;10.25;5.47;;;9.30;64.90;;;3.18;100.00;96032.19;4951557;28;20035;-53
2024/02/06 09:24:05;;;;;;;9.70;5.50;;;9.30;64.60;;;3.36;100.00;96021.81;4958172;28;20030;-50
2024/02/06 09:26:31;;;;;;;7.88;5.05;;;9.50;64.50;;;3.51;100.00;96023.38;4952524;28;20038;-50
2024/02/06 09:28:57;;;;;;;8.85;4.85;;;9.70;64.20;;;3.82;100.00;96028.69;4951678;28;20355;-51
2024/02/06 09:31:24;;;;;;;8.10;4.65;;;10.00;64.10;;;4.16;100.00;96035.38;4952849;28;20441;-55
2024/02/06 09:33:50;;;;;;;12.77;4.60;;;10.30;63.80;;;4.39;100.00;96034.03;4952080;28;20141;-50
2024/02/06 09:36:15;;;;;;;6.72;3.95;;;10.70;63.40;;;4.52;100.00;96041.84;4946024;28;20027;-50
2024/02/06 09:38:41;;;;;;;7.40;3.85;;;11.00;62.70;;;4.74;100.00;96039.63;4938171;28;20375;-50
2024/02/06 09:41:11;;;;;;;8.27;4.68;;;11.40;61.90;;;5.18;100.00;96042.28;4946182;28;20040;-51
2024/02/06 09:43:37;;;;;;;6.38;4.15;;;11.70;61.50;;;5.55;98.42;96040.44;4948336;28;20370;-51
2024/02/06 09:46:04;;;;;;;6.60;4.15;;;12.10;61.10;;;5.45;96.58;96045.41;4946885;28;20031;-53
2024/02/06 09:48:29;;;;;;;5.55;3.58;;;12.30;60.40;;;5.50;96.22;96035.81;4945658;28;20484;-51
2024/02/06 09:50:56;;;;;;;6.03;3.65;;;12.20;59.90;;;5.62;94.38;96040.38;4945692;28;20031;-51
2024/02/06 09:53:31;;;;;;;9.65;3.90;;;12.20;59.80;;;5.44;93.35;96046.47;4947765;28;20023;-49
2024/02/06 09:55:58;;;;;;;8.00;3.60;;;12.20;59.20;;;5.67;94.60;96043.13;4944026;28;20118;-51
2024/02/06 09:58:25;;;;;;;5.63;3.83;;;12.30;59.10;;;5.99;94.46;96030.56;4944743;28;20045;-55
2024/02/06 10:00:54;;;;;;;5.47;3.58;;;12.50;59.00;;;6.11;91.29;96036.72;4946238;28;20379;-53
2024/02/06 10:03:31;;;;;;;5.35;3.45;;;12.60;58.90;;;6.11;89.74;96044.66;4939999;28;20022;-51
2024/02/06 10:06:07;;;;;;;6.65;3.60;;;12.60;58.50;;;5.98;89.13;96044.81;4960969;28;20038;-51
2024/02/06 10:08:33;;;;;;;6.30;3.72;;;12.60;58.00;;;6.22;90.26;96057.09;4966232;28;20026;-50
2024/02/06 10:11:02;;;;;;;10.80;3.97;;;12.70;58.10;;;6.34;87.71;96046.53;4948456;28;20034;-51